KYKM/YKM METAR and TAF weather

Enter ICAO airport designator
Station Type Date Time Source
KYKM METAR 2022/06/26 08:53 UTC NOAA

KYKM 260853Z AUTO 29005KT 10SM CLR 12/05 A3017 RMK AO2 SLP211 T01220050 51001


Station Type Date Time Source
KYKM Decoded METAR 2022/06/26 08:53 UTC NOAA

YAKIMA AIR TERMINAL, WA, United States (KYKM) 46-34N 120-32W 324M
Jun 26, 2022 - 04:53 AM EDT / 2022.06.26 0853 UTC
Wind: from the WNW (290 degrees) at 6 MPH (5 KT):0
Visibility: 10 mile(s):0
Sky conditions: clear
Temperature: 54.0 F (12.2 C)
Dew Point: 41.0 F (5.0 C)
Relative Humidity: 61%
Pressure (altimeter): 30.17 in. Hg (1021 hPa)
Pressure tendency: 0.00 inches (0.1 hPa) higher than three hours ago
ob: KYKM 260853Z AUTO 29005KT 10SM CLR 12/05 A3017 RMK AO2 SLP211 T01220050 51001
cycle: 9

Station Type Date Time Source
KYKM TAF 2022/06/26 06:22 UTC NOAA

TAF KYKM 260520Z 2606/2706 27008KT P6SM SKC
FM261800 14006KT P6SM SKC
FM270200 VRB04KT P6SM SKC

Example: see airport list